createdAt,value
2023-02-14T00:00:13.341Z,99223.44
2023-02-14T00:02:42.683Z,99226.91
2023-02-14T00:05:11.109Z,99218.28
2023-02-14T00:07:39.607Z,99215.69
2023-02-14T00:10:08.962Z,99211.34
2023-02-14T00:12:37.231Z,99176.88
2023-02-14T00:15:23.181Z,99216.63
2023-02-14T00:17:54.633Z,99211.47
2023-02-14T00:20:23.332Z,99216.69
2023-02-14T00:22:51.482Z,99211.53
2023-02-14T00:25:19.928Z,99204.66
2023-02-14T00:27:48.160Z,99208.13
2023-02-14T00:30:16.184Z,99219.41
2023-02-14T00:32:44.481Z,99216.81
2023-02-14T00:35:13.998Z,99217.72
2023-02-14T00:37:42.155Z,99222.91
2023-02-14T00:40:10.731Z,99207.41
2023-02-14T00:42:38.853Z,99214.28
2023-02-14T00:45:07.623Z,99222.09
2023-02-14T00:47:35.481Z,99216.91
2023-02-14T00:50:05.065Z,99218.63
2023-02-14T00:52:34.473Z,99229.94
2023-02-14T00:55:02.932Z,99216.94
2023-02-14T00:57:30.786Z,99220.41
2023-02-14T00:59:58.577Z,99223.06
2023-02-14T01:02:26.361Z,99218.72
2023-02-14T01:04:54.187Z,99218.72
2023-02-14T01:07:22.708Z,99217.03
2023-02-14T01:09:51.844Z,99214.44
2023-02-14T01:12:19.597Z,99217.94
2023-02-14T01:14:47.409Z,99214.47
2023-02-14T01:17:15.155Z,99203.25
2023-02-14T01:19:43.226Z,99207.59
2023-02-14T01:22:10.945Z,99201.56
2023-02-14T01:24:38.691Z,99203.31
2023-02-14T01:27:07.824Z,99207.66
2023-02-14T01:29:35.698Z,99201.59
2023-02-14T01:32:03.579Z,99204.25
2023-02-14T01:34:31.366Z,99208.56
2023-02-14T01:36:59.108Z,99212.03
2023-02-14T01:39:27.797Z,99205.97
2023-02-14T01:41:56.585Z,99212.03
2023-02-14T01:44:57.783Z,99213.78
2023-02-14T01:47:27.264Z,99210.31
2023-02-14T01:49:58.709Z,99219.00
2023-02-14T01:52:28.807Z,99211.25
2023-02-14T01:54:59.530Z,99223.34
2023-02-14T01:57:30.487Z,99218.13
2023-02-14T02:00:21.408Z,99215.53
2023-02-14T02:02:49.205Z,99193.94
2023-02-14T02:05:23.586Z,99212.97
2023-02-14T02:07:52.456Z,99210.38
2023-02-14T02:10:20.380Z,99216.44
2023-02-14T02:12:49.328Z,99210.38
2023-02-14T02:15:18.628Z,99213.81
2023-02-14T02:17:54.130Z,99206.03
2023-02-14T02:21:04.316Z,99202.56
2023-02-14T02:24:09.048Z,99196.50
2023-02-14T02:27:00.362Z,99196.50
2023-02-14T02:30:09.634Z,99194.78
2023-02-14T02:33:10.681Z,99188.72
2023-02-14T02:35:55.278Z,99181.84
2023-02-14T02:38:36.260Z,99187.88
2023-02-14T02:41:09.253Z,99191.31
2023-02-14T02:43:43.070Z,99184.41
2023-02-14T02:46:32.244Z,99188.75
2023-02-14T02:49:05.124Z,99188.72
2023-02-14T02:51:55.977Z,99186.97
2023-02-14T02:54:30.599Z,99198.28
2023-02-14T02:57:01.321Z,99186.16
2023-02-14T02:59:31.943Z,99178.38
2023-02-14T03:02:10.502Z,99178.38
2023-02-14T03:04:55.048Z,99181.00
2023-02-14T03:07:39.462Z,99181.03
2023-02-14T03:10:12.404Z,99181.88
2023-02-14T03:13:06.284Z,99187.06
2023-02-14T03:15:42.923Z,99189.69
2023-02-14T03:18:15.472Z,99191.44
2023-02-14T03:20:47.212Z,99189.72
2023-02-14T03:23:21.821Z,99183.69
2023-02-14T03:25:59.310Z,99185.41
2023-02-14T03:28:31.747Z,99180.22
2023-02-14T03:31:04.269Z,99179.38
2023-02-14T03:33:34.811Z,99184.53
2023-02-14T03:36:05.182Z,99175.91
2023-02-14T03:38:36.055Z,99184.56
2023-02-14T03:41:05.517Z,99168.13
2023-02-14T03:43:36.045Z,99183.72
2023-02-14T03:46:07.780Z,99189.78
2023-02-14T03:48:36.182Z,99183.75
2023-02-14T03:51:04.870Z,99169.03
2023-02-14T03:53:36.701Z,99186.34
2023-02-14T03:56:08.200Z,99188.09
2023-02-14T03:58:39.367Z,99181.16
2023-02-14T04:01:10.355Z,99178.56
2023-02-14T04:03:40.904Z,99195.00
2023-02-14T04:06:09.190Z,99201.94
2023-02-14T04:08:38.408Z,99201.94
2023-02-14T04:11:06.840Z,99197.59
2023-02-14T04:13:35.846Z,99205.44
2023-02-14T04:16:03.934Z,99207.16
2023-02-14T04:18:49.230Z,99200.22
2023-02-14T04:21:17.569Z,99195.06
2023-02-14T04:23:46.754Z,99208.03
2023-02-14T04:26:14.602Z,99200.25
2023-02-14T04:28:42.488Z,99203.72
2023-02-14T04:31:11.462Z,99196.78
2023-02-14T04:33:40.101Z,99200.25
2023-02-14T04:36:08.816Z,99202.84
2023-02-14T04:38:38.562Z,99182.13
2023-02-14T04:41:07.670Z,99208.06
2023-02-14T04:43:35.441Z,99197.69
2023-02-14T04:46:03.328Z,99201.16
2023-02-14T04:48:31.169Z,99202.00
2023-02-14T04:50:59.235Z,99207.19
2023-02-14T04:53:27.517Z,99202.00
2023-02-14T04:55:55.334Z,99180.38
2023-02-14T04:58:24.592Z,99200.28
2023-02-14T05:00:52.473Z,99206.31
2023-02-14T05:03:20.486Z,99214.09
2023-02-14T05:05:48.269Z,99195.94
2023-02-14T05:08:16.170Z,99174.34
2023-02-14T05:10:43.945Z,99202.88
2023-02-14T05:13:11.771Z,99200.28
2023-02-14T05:15:41.225Z,99194.22
2023-02-14T05:18:09.059Z,99198.53
2023-02-14T05:20:37.065Z,99194.22
2023-02-14T05:23:05.322Z,99191.63
2023-02-14T05:25:33.230Z,99188.16
2023-02-14T05:28:01.154Z,99098.28
2023-02-14T05:30:30.223Z,99187.31
2023-02-14T05:32:59.542Z,99179.53
2023-02-14T05:35:27.375Z,99186.44
2023-02-14T05:37:55.286Z,99183.84
2023-02-14T05:42:49.961Z,99185.56
2023-02-14T05:45:17.875Z,99179.53
2023-02-14T05:47:45.748Z,99179.53
2023-02-14T05:50:15.127Z,99180.38
2023-02-14T05:52:42.911Z,99182.13
2023-02-14T05:55:11.221Z,99166.56
2023-02-14T05:57:39.019Z,99176.94
2023-02-14T06:00:08.201Z,99172.59
2023-02-14T06:02:37.378Z,99156.19
2023-02-14T06:05:05.386Z,99166.56
2023-02-14T06:07:34.518Z,99173.47
2023-02-14T06:10:02.373Z,99169.16
2023-02-14T06:12:30.127Z,99172.59
2023-02-14T06:14:57.920Z,99173.47
2023-02-14T06:17:25.716Z,99172.59
2023-02-14T06:19:53.511Z,99169.13
2023-02-14T06:22:21.538Z,99177.78
2023-02-14T06:24:50.773Z,99173.47
2023-02-14T06:27:18.649Z,99174.34
2023-02-14T06:29:46.443Z,99177.78
2023-02-14T06:32:14.370Z,99185.56
2023-02-14T06:34:42.253Z,99178.63
2023-02-14T06:37:10.119Z,99182.09
2023-02-14T06:39:37.937Z,99183.81
2023-02-14T06:42:07.266Z,99185.53
2023-02-14T06:44:35.090Z,99195.94
2023-02-14T06:47:02.902Z,99190.72
2023-02-14T06:49:30.694Z,99196.75
2023-02-14T06:51:58.447Z,99199.34
2023-02-14T06:54:26.268Z,99198.47
2023-02-14T06:56:54.063Z,99198.44
2023-02-14T06:59:23.535Z,99190.66
2023-02-14T07:01:51.512Z,99188.91
2023-02-14T07:04:19.333Z,99193.19
2023-02-14T07:06:47.688Z,99181.03
2023-02-14T07:09:18.323Z,99194.00
2023-02-14T07:11:46.843Z,99201.72
2023-02-14T07:14:14.782Z,99199.13
2023-02-14T07:16:43.995Z,99203.41
2023-02-14T07:19:11.859Z,99205.97
2023-02-14T07:21:39.657Z,99193.88
2023-02-14T07:24:07.819Z,99202.53
2023-02-14T07:26:35.646Z,99201.63
2023-02-14T07:29:03.433Z,99203.38
2023-02-14T07:31:32.181Z,99195.59
2023-02-14T07:34:01.840Z,99203.34
2023-02-14T07:36:29.837Z,99205.06
2023-02-14T07:38:57.977Z,99184.25
2023-02-14T07:41:25.822Z,99208.44
2023-02-14T07:43:53.619Z,99205.03
2023-02-14T07:46:21.467Z,99201.59
2023-02-14T07:48:51.709Z,99202.47
2023-02-14T07:51:20.991Z,99213.69
2023-02-14T07:53:48.861Z,99203.31
2023-02-14T07:56:16.664Z,99206.78
2023-02-14T07:58:44.487Z,99208.53
2023-02-14T08:01:12.345Z,99211.09
2023-02-14T08:03:40.203Z,99207.66
2023-02-14T08:06:08.158Z,99202.47
2023-02-14T08:08:37.343Z,99216.28
2023-02-14T08:11:05.268Z,99210.25
2023-02-14T08:13:33.113Z,99216.25
2023-02-14T08:16:07.599Z,99216.25
2023-02-14T08:18:37.634Z,99212.84
2023-02-14T08:21:06.984Z,99212.00
2023-02-14T08:23:35.154Z,99217.22
2023-02-14T08:26:04.745Z,99212.03
2023-02-14T08:28:33.275Z,99208.56
2023-02-14T08:31:01.770Z,99211.16
2023-02-14T08:33:29.742Z,99204.28
2023-02-14T08:35:57.593Z,99167.91
2023-02-14T08:38:25.570Z,99199.97
2023-02-14T08:40:53.552Z,99199.97
2023-02-14T08:43:22.714Z,99206.84
2023-02-14T08:45:53.743Z,99208.56
2023-02-14T08:48:23.486Z,99210.34
2023-02-14T08:50:51.310Z,99204.31
2023-02-14T08:53:19.191Z,99205.13
2023-02-14T08:55:47.231Z,99212.06
2023-02-14T08:58:15.374Z,99222.44
2023-02-14T09:00:44.613Z,99213.84
2023-02-14T09:03:12.422Z,99208.66
2023-02-14T09:05:40.282Z,99222.53
2023-02-14T09:08:08.151Z,99209.59
2023-02-14T09:10:36.008Z,99208.72
2023-02-14T09:13:03.851Z,99206.16
2023-02-14T09:15:31.673Z,99214.75
2023-02-14T09:18:00.860Z,99211.28
2023-02-14T09:20:28.645Z,99209.56
2023-02-14T09:22:57.074Z,99207.88
2023-02-14T09:25:24.876Z,99208.72
2023-02-14T09:27:52.697Z,99207.84
2023-02-14T09:30:20.586Z,99203.50
2023-02-14T09:32:48.385Z,99205.25
2023-02-14T09:35:17.709Z,99204.41
2023-02-14T09:37:44.508Z,99198.38
2023-02-14T09:40:14.487Z,99193.19
2023-02-14T09:42:49.600Z,99206.16
2023-02-14T09:45:20.150Z,99205.28
2023-02-14T09:47:51.072Z,99200.09
2023-02-14T09:50:25.879Z,99201.03
2023-02-14T09:52:57.213Z,99202.75
2023-02-14T09:55:27.065Z,99198.47
2023-02-14T09:58:05.043Z,99194.16
2023-02-14T10:00:37.900Z,99198.47
2023-02-14T10:03:40.033Z,99190.66
2023-02-14T10:06:16.640Z,99192.44
2023-02-14T10:08:55.084Z,99197.59
2023-02-14T10:11:25.590Z,99197.56
2023-02-14T10:13:57.081Z,99202.75
2023-02-14T10:16:27.191Z,99201.91
2023-02-14T10:18:57.973Z,99164.75
2023-02-14T10:21:30.810Z,99194.19
2023-02-14T10:24:03.561Z,99184.66
2023-02-14T10:26:34.983Z,99191.59
2023-02-14T10:29:04.226Z,99195.94
2023-02-14T10:31:37.273Z,99201.09
2023-02-14T10:34:09.852Z,99192.38
2023-02-14T10:36:50.686Z,99190.56
2023-02-14T10:39:30.992Z,99181.09
2023-02-14T10:42:02.911Z,99174.19
2023-02-14T10:44:45.958Z,99175.94
2023-02-14T10:47:25.237Z,99179.44
2023-02-14T10:49:59.469Z,99165.66
2023-02-14T10:52:34.425Z,99175.16
2023-02-14T10:55:10.431Z,99166.53
2023-02-14T10:57:42.180Z,99165.59
2023-02-14T11:00:20.914Z,99158.69
2023-02-14T11:02:52.379Z,99167.34
2023-02-14T11:05:26.544Z,99141.38
2023-02-14T11:07:58.868Z,99168.16
2023-02-14T11:10:28.160Z,99159.56
2023-02-14T11:12:56.006Z,99159.56
2023-02-14T11:15:27.724Z,99155.25
2023-02-14T11:18:10.110Z,99156.97
2023-02-14T11:20:38.043Z,99144.00
2023-02-14T11:23:19.922Z,99146.59
2023-02-14T11:25:51.820Z,99147.47
2023-02-14T11:28:21.402Z,99156.94
2023-02-14T11:30:50.958Z,99145.69
2023-02-14T11:33:31.851Z,99142.28
2023-02-14T11:35:59.941Z,99137.97
2023-02-14T11:38:31.879Z,99124.19
2023-02-14T11:41:00.804Z,99125.94
2023-02-14T11:43:34.139Z,99129.41
2023-02-14T11:46:17.335Z,99129.38
2023-02-14T11:48:57.632Z,99125.06
2023-02-14T11:51:31.261Z,99117.25
2023-02-14T11:54:04.915Z,99112.06
2023-02-14T11:56:48.870Z,99120.69
2023-02-14T11:59:26.325Z,99118.97
2023-02-14T12:01:54.451Z,99115.53
2023-02-14T12:04:24.667Z,99122.47
2023-02-14T12:06:52.547Z,99117.28
2023-02-14T12:09:28.053Z,99108.63
2023-02-14T12:11:57.300Z,99108.63
2023-02-14T12:14:26.885Z,99096.50
2023-02-14T12:16:59.046Z,99106.84
2023-02-14T12:19:34.393Z,99100.78
2023-02-14T12:22:04.942Z,99097.34
2023-02-14T12:24:37.559Z,99093.88
2023-02-14T12:27:15.675Z,99086.97
2023-02-14T12:29:47.963Z,99083.56
2023-02-14T12:32:22.198Z,99078.38
2023-02-14T12:34:50.487Z,99078.41
2023-02-14T12:37:23.394Z,99075.81
2023-02-14T12:40:05.898Z,99080.13
2023-02-14T12:42:43.936Z,99081.81
2023-02-14T12:45:15.631Z,99075.81
2023-02-14T12:47:50.662Z,99068.88
2023-02-14T12:50:45.297Z,99074.03
2023-02-14T12:53:31.409Z,99023.06
2023-02-14T12:56:07.662Z,99066.22
2023-02-14T12:58:46.416Z,99063.63
2023-02-14T13:01:38.367Z,99061.84
2023-02-14T13:04:27.049Z,99054.94
2023-02-14T13:06:56.881Z,99056.59
2023-02-14T13:09:35.017Z,99054.88
2023-02-14T13:12:11.610Z,99047.91
2023-02-14T13:15:02.789Z,99039.22
2023-02-14T13:17:37.214Z,99048.78
2023-02-14T13:20:30.974Z,99047.91
2023-02-14T13:23:01.533Z,99038.44
2023-02-14T13:25:33.723Z,99026.31
2023-02-14T13:28:05.583Z,99038.41
2023-02-14T13:30:35.788Z,99010.78
2023-02-14T13:33:09.752Z,99036.69
2023-02-14T13:35:37.960Z,99032.41
2023-02-14T13:38:12.141Z,99035.06
2023-02-14T13:40:40.028Z,99027.31
2023-02-14T13:43:09.188Z,99025.66
2023-02-14T13:46:03.873Z,99016.16
2023-02-14T13:48:31.831Z,99013.59
2023-02-14T13:51:01.088Z,99017.03
2023-02-14T13:53:35.313Z,99014.47
2023-02-14T13:56:06.059Z,99006.69
2023-02-14T13:58:36.576Z,99005.81
2023-02-14T14:01:31.596Z,99008.41
2023-02-14T14:04:01.793Z,99004.91
2023-02-14T14:06:29.997Z,99004.88
2023-02-14T14:08:58.114Z,99005.72
2023-02-14T14:12:02.124Z,98995.25
2023-02-14T14:14:36.403Z,98975.47
2023-02-14T14:17:27.713Z,99010.00
2023-02-14T14:19:57.991Z,99008.31
2023-02-14T14:22:26.686Z,98998.00
2023-02-14T14:25:00.360Z,99007.56
2023-02-14T14:27:31.617Z,99019.66
2023-02-14T14:30:02.110Z,99004.97
2023-02-14T14:32:31.485Z,99003.19
2023-02-14T14:35:00.931Z,98985.94
2023-02-14T14:37:29.880Z,99004.91
2023-02-14T14:39:58.990Z,98997.09
2023-02-14T14:42:29.395Z,98993.63
2023-02-14T14:45:00.730Z,98991.88
2023-02-14T14:47:30.430Z,98991.94
2023-02-14T14:50:01.462Z,98985.03
2023-02-14T14:52:33.954Z,98986.75
2023-02-14T14:55:02.210Z,98988.50
2023-02-14T14:57:30.070Z,98985.88
2023-02-14T15:00:19.945Z,98982.44
2023-02-14T15:03:05.884Z,98986.69
2023-02-14T15:05:36.116Z,98960.78
2023-02-14T15:08:21.765Z,98972.88
2023-02-14T15:10:52.349Z,98967.69
2023-02-14T15:13:37.678Z,98980.66
2023-02-14T15:16:07.038Z,98974.56
2023-02-14T15:18:34.833Z,98976.31
2023-02-14T15:21:03.548Z,98972.84
2023-02-14T15:23:31.425Z,98971.09
2023-02-14T15:25:59.285Z,98966.78
2023-02-14T15:28:28.547Z,98965.94
2023-02-14T15:30:58.410Z,98964.19
2023-02-14T15:33:28.034Z,98953.84
2023-02-14T15:35:56.464Z,98960.75
2023-02-14T15:38:25.106Z,98961.66
2023-02-14T15:40:54.612Z,98958.16
2023-02-14T15:43:27.854Z,98966.88
2023-02-14T15:45:58.069Z,98960.00
2023-02-14T15:48:29.242Z,98962.53
2023-02-14T15:50:59.089Z,98951.31
2023-02-14T15:53:33.971Z,98949.53
2023-02-14T15:56:10.553Z,98951.22
2023-02-14T15:58:40.339Z,98952.09
2023-02-14T16:01:09.253Z,98950.34
2023-02-14T16:03:43.631Z,98955.47
2023-02-14T16:06:17.606Z,98952.03
2023-02-14T16:08:46.717Z,98945.97
2023-02-14T16:11:15.904Z,98951.19
2023-02-14T16:13:45.093Z,98951.19
2023-02-14T16:16:14.281Z,98946.91
2023-02-14T16:18:45.189Z,98949.47
2023-02-14T16:21:18.061Z,98947.72
2023-02-14T16:23:47.409Z,98952.94
2023-02-14T16:26:15.825Z,98946.03
2023-02-14T16:28:43.618Z,98952.03
2023-02-14T16:31:17.058Z,98946.00
2023-02-14T16:33:46.367Z,98951.16
2023-02-14T16:36:19.109Z,98954.66
2023-02-14T16:38:47.540Z,98952.94
2023-02-14T16:41:19.879Z,98951.22
2023-02-14T16:43:48.558Z,98953.00
2023-02-14T16:46:18.375Z,98943.56
2023-02-14T16:48:52.041Z,98956.47
2023-02-14T16:51:20.680Z,98958.22
2023-02-14T16:53:48.588Z,98951.34
2023-02-14T16:56:25.411Z,98961.72
2023-02-14T16:58:53.461Z,98959.16
2023-02-14T17:01:21.246Z,98964.31
2023-02-14T17:03:50.493Z,98963.47
2023-02-14T17:06:21.741Z,98957.44
2023-02-14T17:08:50.851Z,98957.47
2023-02-14T17:11:18.820Z,98959.19
2023-02-14T17:13:47.312Z,98963.50
2023-02-14T17:16:16.499Z,98968.69
2023-02-14T17:18:47.612Z,98965.25
2023-02-14T17:21:18.186Z,98965.25
2023-02-14T17:23:45.969Z,98971.28
2023-02-14T17:26:14.543Z,98977.31
2023-02-14T17:28:42.426Z,98973.00
2023-02-14T17:31:10.550Z,98977.31
2023-02-14T17:33:39.047Z,98978.19
2023-02-14T17:36:08.721Z,98973.84
2023-02-14T17:38:39.984Z,98980.75
2023-02-14T17:41:14.960Z,98962.63
2023-02-14T17:43:43.102Z,98981.59
2023-02-14T17:46:11.174Z,98985.06
2023-02-14T17:48:38.964Z,98984.19
2023-02-14T17:51:08.062Z,98981.59
2023-02-14T17:53:35.934Z,98975.56
2023-02-14T17:56:10.706Z,98989.34
2023-02-14T17:58:39.124Z,98982.44
2023-02-14T18:01:09.113Z,98975.53
2023-02-14T18:03:37.456Z,98971.19
2023-02-14T18:06:06.056Z,98972.09
2023-02-14T18:08:35.934Z,98970.38
2023-02-14T18:11:05.710Z,98966.09
2023-02-14T18:13:35.499Z,98968.72
2023-02-14T18:16:03.843Z,98967.88
2023-02-14T18:18:31.780Z,98966.13
2023-02-14T18:21:01.596Z,98964.41
2023-02-14T18:23:30.734Z,98962.72
2023-02-14T18:25:59.812Z,98962.72
2023-02-14T18:28:28.729Z,98958.38
2023-02-14T18:31:04.297Z,98960.97
2023-02-14T18:33:32.220Z,98949.78
2023-02-14T18:36:02.542Z,98941.13
2023-02-14T18:38:30.386Z,98946.31
2023-02-14T18:41:03.229Z,98940.28
2023-02-14T18:43:31.435Z,98935.94
2023-02-14T18:46:05.032Z,98938.53
2023-02-14T18:48:33.586Z,98933.34
2023-02-14T18:51:06.851Z,98938.53
2023-02-14T18:53:35.024Z,98929.91
2023-02-14T18:56:05.052Z,98934.22
2023-02-14T18:58:32.926Z,98931.66
2023-02-14T19:01:01.089Z,98935.94
2023-02-14T19:03:30.369Z,98925.59
2023-02-14T19:06:00.306Z,98930.78
2023-02-14T19:08:28.781Z,98926.44
2023-02-14T19:10:56.591Z,98925.59
2023-02-14T19:13:27.973Z,98929.88
2023-02-14T19:15:56.062Z,98922.13
2023-02-14T19:18:25.707Z,98920.41
2023-02-14T19:20:55.021Z,98917.81
2023-02-14T19:23:22.855Z,98921.25
2023-02-14T19:25:50.638Z,98910.91
2023-02-14T19:28:18.394Z,98898.84
2023-02-14T19:30:46.297Z,98910.94
2023-02-14T19:33:14.160Z,98918.69
2023-02-14T19:35:41.949Z,98916.97
2023-02-14T19:38:11.172Z,98922.13
2023-02-14T19:40:39.014Z,98915.22
2023-02-14T19:43:07.016Z,98912.66
2023-02-14T19:45:34.893Z,98916.97
2023-02-14T19:48:03.569Z,98916.06
2023-02-14T19:50:31.751Z,98904.00
2023-02-14T19:52:59.554Z,98906.59
2023-02-14T19:55:29.055Z,98896.25
2023-02-14T19:57:57.662Z,98897.97
2023-02-14T20:00:25.519Z,98891.91
2023-02-14T20:02:54.605Z,98893.66
2023-02-14T20:05:23.533Z,98889.31
2023-02-14T20:07:52.033Z,98879.84
2023-02-14T20:10:20.032Z,98885.03
2023-02-14T20:12:49.531Z,98870.38
2023-02-14T20:15:17.439Z,98866.91
2023-02-14T20:17:45.263Z,98866.91
2023-02-14T20:20:13.880Z,98873.81
2023-02-14T20:22:41.750Z,98872.06
2023-02-14T20:25:09.953Z,98853.97
2023-02-14T20:27:37.981Z,98865.19
2023-02-14T20:30:09.062Z,98869.50
2023-02-14T20:32:37.278Z,98879.88
2023-02-14T20:35:05.638Z,98877.28
2023-02-14T20:37:33.484Z,98872.09
2023-02-14T20:40:01.540Z,98868.66
2023-02-14T20:42:29.298Z,98880.72
2023-02-14T20:44:57.098Z,98866.06
2023-02-14T20:47:26.259Z,98859.16
2023-02-14T20:49:54.047Z,98860.88
2023-02-14T20:52:21.885Z,98862.63
2023-02-14T20:54:49.674Z,98864.34
2023-02-14T20:57:17.438Z,98863.47
2023-02-14T20:59:45.488Z,98860.91
2023-02-14T21:02:13.507Z,98860.03
2023-02-14T21:04:42.684Z,98856.59
2023-02-14T21:07:10.614Z,98843.63
2023-02-14T21:09:38.903Z,98841.03
2023-02-14T21:12:07.695Z,98830.69
2023-02-14T21:14:35.575Z,98836.69
2023-02-14T21:17:04.862Z,98835.00
2023-02-14T21:19:32.893Z,98830.66
2023-02-14T21:22:02.151Z,98828.06
2023-02-14T21:24:30.437Z,98828.09
2023-02-14T21:26:58.387Z,98820.31
2023-02-14T21:29:26.531Z,98816.03
2023-02-14T21:31:54.471Z,98824.63
2023-02-14T21:34:22.339Z,98829.84
2023-02-14T21:36:50.119Z,98822.06
2023-02-14T21:39:20.919Z,98820.34
2023-02-14T21:41:48.710Z,98819.50
2023-02-14T21:44:40.350Z,98827.25
2023-02-14T21:47:08.143Z,98816.06
2023-02-14T21:49:53.412Z,98819.47
2023-02-14T21:52:21.183Z,98827.25
2023-02-14T21:54:50.308Z,98825.53
2023-02-14T21:57:18.160Z,98824.69
2023-02-14T21:59:45.918Z,98823.81
2023-02-14T22:02:13.823Z,98823.81
2023-02-14T22:04:43.194Z,98805.69
2023-02-14T22:07:11.163Z,98823.81
2023-02-14T22:09:38.980Z,98825.50
2023-02-14T22:12:08.518Z,98820.34
2023-02-14T22:14:36.252Z,98815.19
2023-02-14T22:17:04.378Z,98813.44
2023-02-14T22:19:32.154Z,98813.44
2023-02-14T22:21:59.969Z,98807.41
2023-02-14T22:24:27.854Z,98806.53
2023-02-14T22:26:55.731Z,98814.31
2023-02-14T22:29:24.874Z,98794.47
2023-02-14T22:31:52.747Z,98812.56
2023-02-14T22:34:20.548Z,98803.09
2023-02-14T22:36:48.726Z,98807.38
2023-02-14T22:39:17.513Z,98801.34
2023-02-14T22:41:45.512Z,98812.56
2023-02-14T22:44:14.151Z,98804.78
2023-02-14T22:46:43.569Z,98806.50
2023-02-14T22:49:11.456Z,98778.94
2023-02-14T22:51:40.708Z,98804.78
2023-02-14T22:54:12.293Z,98807.34
2023-02-14T22:56:42.401Z,98796.97
2023-02-14T22:59:15.381Z,98792.66
2023-02-14T23:01:44.685Z,98781.47
2023-02-14T23:04:12.845Z,98787.50
2023-02-14T23:06:40.795Z,98746.16
2023-02-14T23:09:10.161Z,98788.34
2023-02-14T23:11:39.618Z,98783.19
2023-02-14T23:14:25.164Z,98790.09
2023-02-14T23:17:12.238Z,98790.13
2023-02-14T23:19:57.688Z,98780.59
2023-02-14T23:22:27.236Z,98771.97
2023-02-14T23:24:57.176Z,98782.34
2023-02-14T23:27:26.805Z,98784.03
2023-02-14T23:29:54.571Z,98785.78
2023-02-14T23:32:23.797Z,98778.88
2023-02-14T23:34:51.598Z,98778.88
2023-02-14T23:37:19.869Z,98787.50
2023-02-14T23:39:47.642Z,98791.00
2023-02-14T23:42:16.161Z,98761.66
2023-02-14T23:44:44.504Z,98790.97
2023-02-14T23:47:13.713Z,98781.47
2023-02-14T23:49:43.665Z,98773.69
2023-02-14T23:52:13.214Z,98780.63
2023-02-14T23:54:41.330Z,98784.97
2023-02-14T23:57:09.858Z,98780.66
2023-02-14T23:59:38.071Z,98782.38
